sensor_id;sensor_type;location;lat;lon;timestamp;temperature;humidity
9662;DHT22;24982;52.344;12.990;2022-10-26T00:01:36;11.50;99.90
9662;DHT22;24982;52.344;12.990;2022-10-26T00:04:38;11.50;99.90
9662;DHT22;24982;52.344;12.990;2022-10-26T00:07:40;11.50;99.90
9662;DHT22;24982;52.344;12.990;2022-10-26T00:10:44;11.50;99.90
9662;DHT22;24982;52.344;12.990;2022-10-26T00:13:46;11.50;99.90
9662;DHT22;24982;52.344;12.990;2022-10-26T00:16:48;11.40;99.90
9662;DHT22;24982;52.344;12.990;2022-10-26T00:19:50;11.40;99.90
9662;DHT22;24982;52.344;12.990;2022-10-26T00:22:52;11.40;99.90
9662;DHT22;24982;52.344;12.990;2022-10-26T00:25:56;11.40;99.90
9662;DHT22;24982;52.344;12.990;2022-10-26T00:28:58;11.30;99.90
9662;DHT22;24982;52.344;12.990;2022-10-26T00:32:00;11.30;99.90
9662;DHT22;24982;52.344;12.990;2022-10-26T00:35:03;11.30;99.90
9662;DHT22;24982;52.344;12.990;2022-10-26T00:38:05;11.30;99.90
9662;DHT22;24982;52.344;12.990;2022-10-26T00:41:12;11.30;99.90
9662;DHT22;24982;52.344;12.990;2022-10-26T00:47:57;11.30;99.90
9662;DHT22;24982;52.344;12.990;2022-10-26T00:51:03;11.20;99.90
9662;DHT22;24982;52.344;12.990;2022-10-26T00:54:10;11.20;99.90
9662;DHT22;24982;52.344;12.990;2022-10-26T00:57:14;11.20;99.90
9662;DHT22;24982;52.344;12.990;2022-10-26T01:00:18;11.20;99.90
9662;DHT22;24982;52.344;12.990;2022-10-26T01:03:21;11.20;99.90
9662;DHT22;24982;52.344;12.990;2022-10-26T01:06:25;11.20;99.90
9662;DHT22;24982;52.344;12.990;2022-10-26T01:09:27;11.20;99.90
9662;DHT22;24982;52.344;12.990;2022-10-26T01:12:30;11.20;99.90
9662;DHT22;24982;52.344;12.990;2022-10-26T01:31:20;11.10;99.90
9662;DHT22;24982;52.344;12.990;2022-10-26T01:34:28;10.90;99.90
9662;DHT22;24982;52.344;12.990;2022-10-26T01:37:36;10.90;99.90
9662;DHT22;24982;52.344;12.990;2022-10-26T01:40:43;10.90;99.90
9662;DHT22;24982;52.344;12.990;2022-10-26T01:43:49;11.00;99.90
9662;DHT22;24982;52.344;12.990;2022-10-26T01:46:57;11.00;99.90
9662;DHT22;24982;52.344;12.990;2022-10-26T01:50:01;11.10;99.90
9662;DHT22;24982;52.344;12.990;2022-10-26T01:53:04;11.10;99.90
9662;DHT22;24982;52.344;12.990;2022-10-26T01:56:12;11.20;99.90
9662;DHT22;24982;52.344;12.990;2022-10-26T01:59:25;11.10;99.90
9662;DHT22;24982;52.344;12.990;2022-10-26T02:03:03;11.10;99.90
9662;DHT22;24982;52.344;12.990;2022-10-26T02:06:15;11.00;99.90
9662;DHT22;24982;52.344;12.990;2022-10-26T02:09:25;11.00;99.90
9662;DHT22;24982;52.344;12.990;2022-10-26T02:12:32;11.00;99.90
9662;DHT22;24982;52.344;12.990;2022-10-26T02:15:44;11.10;99.90
9662;DHT22;24982;52.344;12.990;2022-10-26T02:18:54;11.10;99.90
9662;DHT22;24982;52.344;12.990;2022-10-26T02:22:06;11.10;99.90
9662;DHT22;24982;52.344;12.990;2022-10-26T02:25:13;11.10;99.90
9662;DHT22;24982;52.344;12.990;2022-10-26T02:28:19;11.00;99.90
9662;DHT22;24982;52.344;12.990;2022-10-26T02:31:23;11.20;99.90
9662;DHT22;24982;52.344;12.990;2022-10-26T02:34:28;11.20;99.90
9662;DHT22;24982;52.344;12.990;2022-10-26T02:37:32;11.10;99.90
9662;DHT22;24982;52.344;12.990;2022-10-26T02:40:35;11.20;99.90
9662;DHT22;24982;52.344;12.990;2022-10-26T02:43:42;11.20;99.90
9662;DHT22;24982;52.344;12.990;2022-10-26T02:46:46;11.10;99.90
9662;DHT22;24982;52.344;12.990;2022-10-26T02:49:50;11.20;99.90
9662;DHT22;24982;52.344;12.990;2022-10-26T02:52:59;11.20;99.90
9662;DHT22;24982;52.344;12.990;2022-10-26T02:56:07;11.10;99.90
9662;DHT22;24982;52.344;12.990;2022-10-26T02:59:11;11.00;99.90
9662;DHT22;24982;52.344;12.990;2022-10-26T03:02:15;10.80;99.90
9662;DHT22;24982;52.344;12.990;2022-10-26T03:05:22;10.60;99.90
9662;DHT22;24982;52.344;12.990;2022-10-26T03:08:25;10.40;99.90
9662;DHT22;24982;52.344;12.990;2022-10-26T03:11:27;10.50;99.90
9662;DHT22;24982;52.344;12.990;2022-10-26T03:14:29;10.50;99.90
9662;DHT22;24982;52.344;12.990;2022-10-26T03:17:31;10.50;99.90
9662;DHT22;24982;52.344;12.990;2022-10-26T03:20:34;10.50;99.90
9662;DHT22;24982;52.344;12.990;2022-10-26T03:23:36;10.60;99.90
9662;DHT22;24982;52.344;12.990;2022-10-26T03:26:38;10.40;99.90
9662;DHT22;24982;52.344;12.990;2022-10-26T03:29:40;10.50;99.90
9662;DHT22;24982;52.344;12.990;2022-10-26T03:32:42;10.70;99.90
9662;DHT22;24982;52.344;12.990;2022-10-26T03:35:45;10.80;99.90
9662;DHT22;24982;52.344;12.990;2022-10-26T03:38:47;10.90;99.90
9662;DHT22;24982;52.344;12.990;2022-10-26T03:41:49;10.90;99.90
9662;DHT22;24982;52.344;12.990;2022-10-26T03:44:51;10.90;99.90
9662;DHT22;24982;52.344;12.990;2022-10-26T03:47:53;10.90;99.90
9662;DHT22;24982;52.344;12.990;2022-10-26T03:50:58;10.70;99.90
9662;DHT22;24982;52.344;12.990;2022-10-26T03:54:00;10.70;99.90
9662;DHT22;24982;52.344;12.990;2022-10-26T03:57:02;10.60;99.90
9662;DHT22;24982;52.344;12.990;2022-10-26T04:00:05;10.40;99.90
9662;DHT22;24982;52.344;12.990;2022-10-26T04:03:12;10.40;99.90
9662;DHT22;24982;52.344;12.990;2022-10-26T04:06:15;10.40;99.90
9662;DHT22;24982;52.344;12.990;2022-10-26T04:09:17;10.20;99.90
9662;DHT22;24982;52.344;12.990;2022-10-26T04:12:19;10.10;99.90
9662;DHT22;24982;52.344;12.990;2022-10-26T04:15:21;10.00;99.90
9662;DHT22;24982;52.344;12.990;2022-10-26T04:18:24;9.80;99.90
9662;DHT22;24982;52.344;12.990;2022-10-26T04:21:27;9.70;99.90
9662;DHT22;24982;52.344;12.990;2022-10-26T04:24:30;9.60;99.90
9662;DHT22;24982;52.344;12.990;2022-10-26T04:27:32;9.50;99.90
9662;DHT22;24982;52.344;12.990;2022-10-26T04:30:35;9.50;99.90
9662;DHT22;24982;52.344;12.990;2022-10-26T04:33:37;9.60;99.90
9662;DHT22;24982;52.344;12.990;2022-10-26T04:36:40;9.60;99.90
9662;DHT22;24982;52.344;12.990;2022-10-26T04:39:42;9.80;99.90
9662;DHT22;24982;52.344;12.990;2022-10-26T04:42:45;10.00;99.90
9662;DHT22;24982;52.344;12.990;2022-10-26T04:45:47;10.20;99.90
9662;DHT22;24982;52.344;12.990;2022-10-26T04:48:49;10.20;99.90
9662;DHT22;24982;52.344;12.990;2022-10-26T04:51:52;10.20;99.90
9662;DHT22;24982;52.344;12.990;2022-10-26T04:54:54;10.30;99.90
9662;DHT22;24982;52.344;12.990;2022-10-26T04:57:56;10.20;99.90
9662;DHT22;24982;52.344;12.990;2022-10-26T05:01:00;10.30;99.90
9662;DHT22;24982;52.344;12.990;2022-10-26T05:04:02;10.30;99.90
9662;DHT22;24982;52.344;12.990;2022-10-26T05:07:05;10.20;99.90
9662;DHT22;24982;52.344;12.990;2022-10-26T05:10:08;9.80;99.90
9662;DHT22;24982;52.344;12.990;2022-10-26T05:13:11;9.50;99.90
9662;DHT22;24982;52.344;12.990;2022-10-26T05:16:13;9.20;99.90
9662;DHT22;24982;52.344;12.990;2022-10-26T05:22:19;9.10;99.90
9662;DHT22;24982;52.344;12.990;2022-10-26T05:25:22;8.90;99.90
9662;DHT22;24982;52.344;12.990;2022-10-26T05:28:24;8.90;99.90
9662;DHT22;24982;52.344;12.990;2022-10-26T05:31:25;8.80;99.90
9662;DHT22;24982;52.344;12.990;2022-10-26T05:34:28;9.00;99.90
9662;DHT22;24982;52.344;12.990;2022-10-26T05:37:31;9.00;99.90
9662;DHT22;24982;52.344;12.990;2022-10-26T05:40:33;9.20;99.90
9662;DHT22;24982;52.344;12.990;2022-10-26T05:43:35;9.10;99.90
9662;DHT22;24982;52.344;12.990;2022-10-26T05:46:37;9.10;99.90
9662;DHT22;24982;52.344;12.990;2022-10-26T05:49:39;9.00;99.90
9662;DHT22;24982;52.344;12.990;2022-10-26T05:52:45;8.90;99.90
9662;DHT22;24982;52.344;12.990;2022-10-26T05:55:52;8.70;99.90
9662;DHT22;24982;52.344;12.990;2022-10-26T05:58:55;8.80;99.90
9662;DHT22;24982;52.344;12.990;2022-10-26T06:02:03;8.80;99.90
9662;DHT22;24982;52.344;12.990;2022-10-26T06:05:15;8.70;99.90
9662;DHT22;24982;52.344;12.990;2022-10-26T06:08:23;8.60;99.90
9662;DHT22;24982;52.344;12.990;2022-10-26T06:11:26;8.60;99.90
9662;DHT22;24982;52.344;12.990;2022-10-26T06:14:28;8.70;99.90
9662;DHT22;24982;52.344;12.990;2022-10-26T06:17:38;8.70;99.90
9662;DHT22;24982;52.344;12.990;2022-10-26T06:20:50;8.80;99.90
9662;DHT22;24982;52.344;12.990;2022-10-26T06:24:02;8.90;99.90
9662;DHT22;24982;52.344;12.990;2022-10-26T06:27:12;9.00;99.90
9662;DHT22;24982;52.344;12.990;2022-10-26T06:30:18;9.00;99.90
9662;DHT22;24982;52.344;12.990;2022-10-26T06:33:23;9.10;99.90
9662;DHT22;24982;52.344;12.990;2022-10-26T06:36:27;9.10;99.90
9662;DHT22;24982;52.344;12.990;2022-10-26T06:42:37;9.10;99.90
9662;DHT22;24982;52.344;12.990;2022-10-26T06:45:41;9.40;99.90
9662;DHT22;24982;52.344;12.990;2022-10-26T06:48:50;9.50;99.90
9662;DHT22;24982;52.344;12.990;2022-10-26T06:51:57;9.60;99.90
9662;DHT22;24982;52.344;12.990;2022-10-26T06:55:02;9.80;99.90
9662;DHT22;24982;52.344;12.990;2022-10-26T06:58:08;9.80;99.90
9662;DHT22;24982;52.344;12.990;2022-10-26T07:01:12;9.80;99.90
9662;DHT22;24982;52.344;12.990;2022-10-26T07:04:14;9.90;99.90
9662;DHT22;24982;52.344;12.990;2022-10-26T07:07:19;9.90;99.90
9662;DHT22;24982;52.344;12.990;2022-10-26T07:10:22;10.00;99.90
9662;DHT22;24982;52.344;12.990;2022-10-26T07:13:24;10.00;99.90
9662;DHT22;24982;52.344;12.990;2022-10-26T07:16:26;10.00;99.90
9662;DHT22;24982;52.344;12.990;2022-10-26T07:19:28;10.00;99.90
9662;DHT22;24982;52.344;12.990;2022-10-26T07:22:30;10.00;99.90
9662;DHT22;24982;52.344;12.990;2022-10-26T07:25:34;10.10;99.90
9662;DHT22;24982;52.344;12.990;2022-10-26T07:28:38;10.10;99.90
9662;DHT22;24982;52.344;12.990;2022-10-26T07:31:40;10.00;99.90
9662;DHT22;24982;52.344;12.990;2022-10-26T07:34:42;9.90;99.90
9662;DHT22;24982;52.344;12.990;2022-10-26T07:37:44;9.90;99.90
9662;DHT22;24982;52.344;12.990;2022-10-26T07:40:47;9.80;99.90
9662;DHT22;24982;52.344;12.990;2022-10-26T07:43:53;9.80;99.90
9662;DHT22;24982;52.344;12.990;2022-10-26T07:46:55;9.90;99.90
9662;DHT22;24982;52.344;12.990;2022-10-26T07:49:57;10.00;99.90
9662;DHT22;24982;52.344;12.990;2022-10-26T07:52:59;10.20;99.90
9662;DHT22;24982;52.344;12.990;2022-10-26T07:56:03;10.40;99.90
9662;DHT22;24982;52.344;12.990;2022-10-26T07:59:05;10.50;99.90
9662;DHT22;24982;52.344;12.990;2022-10-26T08:02:08;10.60;99.90
9662;DHT22;24982;52.344;12.990;2022-10-26T08:05:10;10.70;99.90
9662;DHT22;24982;52.344;12.990;2022-10-26T08:14:19;10.10;99.90
9662;DHT22;24982;52.344;12.990;2022-10-26T08:17:21;11.10;99.90
9662;DHT22;24982;52.344;12.990;2022-10-26T08:20:23;11.20;99.90
9662;DHT22;24982;52.344;12.990;2022-10-26T08:23:25;11.10;99.90
9662;DHT22;24982;52.344;12.990;2022-10-26T08:26:28;11.10;99.90
9662;DHT22;24982;52.344;12.990;2022-10-26T08:29:30;11.20;99.90
9662;DHT22;24982;52.344;12.990;2022-10-26T08:32:32;11.20;99.90
9662;DHT22;24982;52.344;12.990;2022-10-26T08:35:34;11.30;99.90
9662;DHT22;24982;52.344;12.990;2022-10-26T08:38:36;11.40;99.90
9662;DHT22;24982;52.344;12.990;2022-10-26T08:41:42;11.50;99.90
9662;DHT22;24982;52.344;12.990;2022-10-26T08:47:52;11.60;99.90
9662;DHT22;24982;52.344;12.990;2022-10-26T08:50:58;11.80;99.90
9662;DHT22;24982;52.344;12.990;2022-10-26T08:54:05;11.90;99.90
9662;DHT22;24982;52.344;12.990;2022-10-26T08:57:16;11.90;99.90
9662;DHT22;24982;52.344;12.990;2022-10-26T09:00:21;12.00;99.90
9662;DHT22;24982;52.344;12.990;2022-10-26T09:09:41;12.50;99.90
9662;DHT22;24982;52.344;12.990;2022-10-26T09:12:53;12.70;99.90
9662;DHT22;24982;52.344;12.990;2022-10-26T09:22:41;13.10;99.90
9662;DHT22;24982;52.344;12.990;2022-10-26T09:25:48;13.40;99.90
9662;DHT22;24982;52.344;12.990;2022-10-26T09:31:56;13.80;99.90
9662;DHT22;24982;52.344;12.990;2022-10-26T09:35:03;14.00;99.90
9662;DHT22;24982;52.344;12.990;2022-10-26T09:38:12;14.20;99.90
9662;DHT22;24982;52.344;12.990;2022-10-26T09:41:21;14.60;99.90
9662;DHT22;24982;52.344;12.990;2022-10-26T09:44:29;14.60;99.90
9662;DHT22;24982;52.344;12.990;2022-10-26T09:47:34;14.80;99.90
9662;DHT22;24982;52.344;12.990;2022-10-26T09:50:39;14.90;99.90
9662;DHT22;24982;52.344;12.990;2022-10-26T09:53:46;15.10;99.90
9662;DHT22;24982;52.344;12.990;2022-10-26T09:56:51;15.30;99.90
9662;DHT22;24982;52.344;12.990;2022-10-26T09:59:55;15.50;99.90
9662;DHT22;24982;52.344;12.990;2022-10-26T10:02:58;16.40;99.90
9662;DHT22;24982;52.344;12.990;2022-10-26T10:06:17;16.10;99.90
9662;DHT22;24982;52.344;12.990;2022-10-26T10:09:21;16.10;99.90
9662;DHT22;24982;52.344;12.990;2022-10-26T10:12:24;16.30;99.90
9662;DHT22;24982;52.344;12.990;2022-10-26T10:15:27;16.80;99.90
9662;DHT22;24982;52.344;12.990;2022-10-26T10:18:30;16.90;99.90
9662;DHT22;24982;52.344;12.990;2022-10-26T10:21:36;17.30;99.90
9662;DHT22;24982;52.344;12.990;2022-10-26T10:24:41;18.00;99.90
9662;DHT22;24982;52.344;12.990;2022-10-26T10:27:51;18.30;99.90
9662;DHT22;24982;52.344;12.990;2022-10-26T10:30:56;18.40;99.90
9662;DHT22;24982;52.344;12.990;2022-10-26T10:46:19;20.20;99.90
9662;DHT22;24982;52.344;12.990;2022-10-26T10:49:25;20.50;99.90
9662;DHT22;24982;52.344;12.990;2022-10-26T10:52:30;20.60;99.90
9662;DHT22;24982;52.344;12.990;2022-10-26T10:58:42;21.30;99.90
9662;DHT22;24982;52.344;12.990;2022-10-26T11:01:53;21.60;99.90
9662;DHT22;24982;52.344;12.990;2022-10-26T11:05:12;21.80;99.90
9662;DHT22;24982;52.344;12.990;2022-10-26T11:08:24;21.90;99.90
9662;DHT22;24982;52.344;12.990;2022-10-26T11:11:31;22.00;99.90
9662;DHT22;24982;52.344;12.990;2022-10-26T11:14:37;22.20;99.90
9662;DHT22;24982;52.344;12.990;2022-10-26T11:17:49;22.50;99.90
9662;DHT22;24982;52.344;12.990;2022-10-26T11:20:57;22.40;99.90
9662;DHT22;24982;52.344;12.990;2022-10-26T11:24:09;22.30;99.90
9662;DHT22;24982;52.344;12.990;2022-10-26T11:30:18;22.20;99.90
9662;DHT22;24982;52.344;12.990;2022-10-26T11:33:25;22.30;99.90
9662;DHT22;24982;52.344;12.990;2022-10-26T11:36:29;22.30;99.90
9662;DHT22;24982;52.344;12.990;2022-10-26T11:39:41;22.30;99.90
9662;DHT22;24982;52.344;12.990;2022-10-26T11:42:47;22.20;99.90
9662;DHT22;24982;52.344;12.990;2022-10-26T11:46:00;22.30;99.90
9662;DHT22;24982;52.344;12.990;2022-10-26T11:49:10;22.60;99.90
9662;DHT22;24982;52.344;12.990;2022-10-26T11:52:18;22.90;99.90
9662;DHT22;24982;52.344;12.990;2022-10-26T11:55:22;23.30;99.90
9662;DHT22;24982;52.344;12.990;2022-10-26T11:58:26;23.50;99.90
9662;DHT22;24982;52.344;12.990;2022-10-26T12:01:29;23.80;99.90
9662;DHT22;24982;52.344;12.990;2022-10-26T12:04:35;24.10;99.90
9662;DHT22;24982;52.344;12.990;2022-10-26T12:07:39;24.30;99.90
9662;DHT22;24982;52.344;12.990;2022-10-26T12:10:48;24.30;99.90
9662;DHT22;24982;52.344;12.990;2022-10-26T12:13:55;24.40;99.90
9662;DHT22;24982;52.344;12.990;2022-10-26T12:17:01;24.20;99.90
9662;DHT22;24982;52.344;12.990;2022-10-26T12:20:17;24.00;99.90
9662;DHT22;24982;52.344;12.990;2022-10-26T12:23:32;24.00;99.90
9662;DHT22;24982;52.344;12.990;2022-10-26T12:26:38;24.00;99.90
9662;DHT22;24982;52.344;12.990;2022-10-26T12:29:45;23.80;99.90
9662;DHT22;24982;52.344;12.990;2022-10-26T12:32:53;23.60;99.90
9662;DHT22;24982;52.344;12.990;2022-10-26T12:35:56;23.40;99.90
9662;DHT22;24982;52.344;12.990;2022-10-26T12:38:58;23.20;99.90
9662;DHT22;24982;52.344;12.990;2022-10-26T12:42:26;23.10;99.90
9662;DHT22;24982;52.344;12.990;2022-10-26T12:45:29;22.90;99.90
9662;DHT22;24982;52.344;12.990;2022-10-26T12:48:38;22.90;99.90
9662;DHT22;24982;52.344;12.990;2022-10-26T12:51:42;22.80;99.90
9662;DHT22;24982;52.344;12.990;2022-10-26T12:54:53;22.70;99.90
9662;DHT22;24982;52.344;12.990;2022-10-26T12:58:23;22.70;99.90
9662;DHT22;24982;52.344;12.990;2022-10-26T13:02:01;22.50;99.90
9662;DHT22;24982;52.344;12.990;2022-10-26T13:05:29;22.10;99.90
9662;DHT22;24982;52.344;12.990;2022-10-26T13:08:41;21.90;99.90
9662;DHT22;24982;52.344;12.990;2022-10-26T13:11:46;21.80;99.90
9662;DHT22;24982;52.344;12.990;2022-10-26T13:14:55;21.90;99.90
9662;DHT22;24982;52.344;12.990;2022-10-26T13:18:01;22.00;99.90
9662;DHT22;24982;52.344;12.990;2022-10-26T13:21:10;22.10;99.90
9662;DHT22;24982;52.344;12.990;2022-10-26T13:24:14;22.10;99.90
9662;DHT22;24982;52.344;12.990;2022-10-26T13:27:38;22.00;99.90
9662;DHT22;24982;52.344;12.990;2022-10-26T13:30:46;22.00;99.90
9662;DHT22;24982;52.344;12.990;2022-10-26T13:33:50;22.00;99.90
9662;DHT22;24982;52.344;12.990;2022-10-26T13:37:02;21.80;99.90
9662;DHT22;24982;52.344;12.990;2022-10-26T13:40:09;21.70;99.90
9662;DHT22;24982;52.344;12.990;2022-10-26T13:43:18;21.50;99.90
9662;DHT22;24982;52.344;12.990;2022-10-26T13:46:27;21.20;99.90
9662;DHT22;24982;52.344;12.990;2022-10-26T13:49:33;20.90;99.90
9662;DHT22;24982;52.344;12.990;2022-10-26T13:52:40;20.60;99.90
9662;DHT22;24982;52.344;12.990;2022-10-26T13:55:48;20.30;99.90
9662;DHT22;24982;52.344;12.990;2022-10-26T13:58:54;20.20;99.90
9662;DHT22;24982;52.344;12.990;2022-10-26T14:02:05;20.00;99.90
9662;DHT22;24982;52.344;12.990;2022-10-26T14:05:10;19.80;99.90
9662;DHT22;24982;52.344;12.990;2022-10-26T14:08:16;19.70;99.90
9662;DHT22;24982;52.344;12.990;2022-10-26T14:11:23;19.60;99.90
9662;DHT22;24982;52.344;12.990;2022-10-26T14:14:29;19.50;99.90
9662;DHT22;24982;52.344;12.990;2022-10-26T14:17:32;19.40;99.90
9662;DHT22;24982;52.344;12.990;2022-10-26T14:20:34;19.30;99.90
9662;DHT22;24982;52.344;12.990;2022-10-26T14:23:44;19.10;99.90
9662;DHT22;24982;52.344;12.990;2022-10-26T14:26:47;18.90;99.90
9662;DHT22;24982;52.344;12.990;2022-10-26T14:29:50;18.70;99.90
9662;DHT22;24982;52.344;12.990;2022-10-26T14:32:52;18.60;99.90
9662;DHT22;24982;52.344;12.990;2022-10-26T14:35:55;18.50;99.90
9662;DHT22;24982;52.344;12.990;2022-10-26T14:38:59;18.40;99.90
9662;DHT22;24982;52.344;12.990;2022-10-26T14:42:12;18.40;99.90
9662;DHT22;24982;52.344;12.990;2022-10-26T14:45:27;18.20;99.90
9662;DHT22;24982;52.344;12.990;2022-10-26T14:48:31;18.10;99.90
9662;DHT22;24982;52.344;12.990;2022-10-26T14:51:34;18.10;99.90
9662;DHT22;24982;52.344;12.990;2022-10-26T14:54:36;18.20;99.90
9662;DHT22;24982;52.344;12.990;2022-10-26T14:57:41;18.20;99.90
9662;DHT22;24982;52.344;12.990;2022-10-26T15:00:44;18.20;99.90
9662;DHT22;24982;52.344;12.990;2022-10-26T15:03:50;18.10;99.90
9662;DHT22;24982;52.344;12.990;2022-10-26T15:07:00;18.00;99.90
9662;DHT22;24982;52.344;12.990;2022-10-26T15:10:03;17.80;99.90
9662;DHT22;24982;52.344;12.990;2022-10-26T15:13:09;17.70;99.90
9662;DHT22;24982;52.344;12.990;2022-10-26T15:16:16;17.50;99.90
9662;DHT22;24982;52.344;12.990;2022-10-26T15:19:19;17.50;99.90
9662;DHT22;24982;52.344;12.990;2022-10-26T15:25:30;17.30;99.90
9662;DHT22;24982;52.344;12.990;2022-10-26T15:28:38;17.20;99.90
9662;DHT22;24982;52.344;12.990;2022-10-26T15:31:42;17.10;99.90
9662;DHT22;24982;52.344;12.990;2022-10-26T15:37:50;16.50;99.90
9662;DHT22;24982;52.344;12.990;2022-10-26T15:40:52;16.40;99.90
9662;DHT22;24982;52.344;12.990;2022-10-26T15:43:57;16.20;99.90
9662;DHT22;24982;52.344;12.990;2022-10-26T15:47:01;16.00;99.90
9662;DHT22;24982;52.344;12.990;2022-10-26T15:50:03;15.80;99.90
9662;DHT22;24982;52.344;12.990;2022-10-26T15:53:20;15.60;99.90
9662;DHT22;24982;52.344;12.990;2022-10-26T15:59:27;15.30;99.90
9662;DHT22;24982;52.344;12.990;2022-10-26T16:02:29;15.20;99.90
9662;DHT22;24982;52.344;12.990;2022-10-26T16:05:31;15.20;99.90
9662;DHT22;24982;52.344;12.990;2022-10-26T16:08:33;15.10;99.90
9662;DHT22;24982;52.344;12.990;2022-10-26T16:11:35;15.10;99.90
9662;DHT22;24982;52.344;12.990;2022-10-26T16:14:39;15.10;99.90
9662;DHT22;24982;52.344;12.990;2022-10-26T16:17:41;15.10;99.90
9662;DHT22;24982;52.344;12.990;2022-10-26T16:20:44;15.20;99.90
9662;DHT22;24982;52.344;12.990;2022-10-26T17:10:08;15.10;99.90
9662;DHT22;24982;52.344;12.990;2022-10-26T17:13:10;15.10;99.90
9662;DHT22;24982;52.344;12.990;2022-10-26T17:16:14;15.10;99.90
9662;DHT22;24982;52.344;12.990;2022-10-26T17:19:17;15.00;99.90
9662;DHT22;24982;52.344;12.990;2022-10-26T17:22:19;14.90;99.90
9662;DHT22;24982;52.344;12.990;2022-10-26T17:25:22;14.90;99.90
9662;DHT22;24982;52.344;12.990;2022-10-26T17:28:24;14.80;99.90
9662;DHT22;24982;52.344;12.990;2022-10-26T17:31:26;14.80;99.90
9662;DHT22;24982;52.344;12.990;2022-10-26T17:34:28;14.80;99.90
9662;DHT22;24982;52.344;12.990;2022-10-26T17:37:30;14.80;99.90
9662;DHT22;24982;52.344;12.990;2022-10-26T17:40:33;14.80;99.90
9662;DHT22;24982;52.344;12.990;2022-10-26T17:43:37;14.80;99.90
9662;DHT22;24982;52.344;12.990;2022-10-26T17:46:39;14.70;99.90
9662;DHT22;24982;52.344;12.990;2022-10-26T17:49:42;14.70;99.90
9662;DHT22;24982;52.344;12.990;2022-10-26T17:52:43;14.70;99.90
9662;DHT22;24982;52.344;12.990;2022-10-26T17:55:47;14.70;99.90
9662;DHT22;24982;52.344;12.990;2022-10-26T17:58:53;14.70;99.90
9662;DHT22;24982;52.344;12.990;2022-10-26T18:01:55;14.70;99.90
9662;DHT22;24982;52.344;12.990;2022-10-26T18:04:57;14.70;99.90
9662;DHT22;24982;52.344;12.990;2022-10-26T18:07:59;14.70;99.90
9662;DHT22;24982;52.344;12.990;2022-10-26T18:11:04;14.60;99.90
9662;DHT22;24982;52.344;12.990;2022-10-26T18:14:06;14.60;99.90
9662;DHT22;24982;52.344;12.990;2022-10-26T18:17:08;14.60;99.90
9662;DHT22;24982;52.344;12.990;2022-10-26T18:20:10;14.50;99.90
9662;DHT22;24982;52.344;12.990;2022-10-26T18:23:12;14.50;99.90
9662;DHT22;24982;52.344;12.990;2022-10-26T18:26:17;14.50;99.90
9662;DHT22;24982;52.344;12.990;2022-10-26T18:29:19;14.40;99.90
9662;DHT22;24982;52.344;12.990;2022-10-26T18:32:21;14.40;99.90
9662;DHT22;24982;52.344;12.990;2022-10-26T18:35:23;14.30;99.90
9662;DHT22;24982;52.344;12.990;2022-10-26T18:38:25;14.30;99.90
9662;DHT22;24982;52.344;12.990;2022-10-26T18:41:29;14.20;99.90
9662;DHT22;24982;52.344;12.990;2022-10-26T18:44:31;14.20;99.90
9662;DHT22;24982;52.344;12.990;2022-10-26T18:47:32;14.10;99.90
9662;DHT22;24982;52.344;12.990;2022-10-26T18:50:35;14.10;99.90
9662;DHT22;24982;52.344;12.990;2022-10-26T18:53:38;14.00;99.90
9662;DHT22;24982;52.344;12.990;2022-10-26T18:56:41;14.00;99.90
9662;DHT22;24982;52.344;12.990;2022-10-26T18:59:43;13.90;99.90
9662;DHT22;24982;52.344;12.990;2022-10-26T19:02:47;13.90;99.90
9662;DHT22;24982;52.344;12.990;2022-10-26T19:05:49;13.90;99.90
9662;DHT22;24982;52.344;12.990;2022-10-26T19:08:52;13.80;99.90
9662;DHT22;24982;52.344;12.990;2022-10-26T19:11:56;13.80;99.90
9662;DHT22;24982;52.344;12.990;2022-10-26T19:14:58;13.70;99.90
9662;DHT22;24982;52.344;12.990;2022-10-26T19:17:59;13.60;99.90
9662;DHT22;24982;52.344;12.990;2022-10-26T19:21:04;13.50;99.90
9662;DHT22;24982;52.344;12.990;2022-10-26T19:24:11;13.60;99.90
9662;DHT22;24982;52.344;12.990;2022-10-26T19:27:14;13.50;99.90
9662;DHT22;24982;52.344;12.990;2022-10-26T19:30:16;13.50;99.90
9662;DHT22;24982;52.344;12.990;2022-10-26T19:33:18;13.40;99.90
9662;DHT22;24982;52.344;12.990;2022-10-26T19:36:20;13.40;99.90
9662;DHT22;24982;52.344;12.990;2022-10-26T19:39:22;13.40;99.90
9662;DHT22;24982;52.344;12.990;2022-10-26T19:42:26;13.40;99.90
9662;DHT22;24982;52.344;12.990;2022-10-26T19:45:28;13.30;99.90
9662;DHT22;24982;52.344;12.990;2022-10-26T19:48:29;13.30;99.90
9662;DHT22;24982;52.344;12.990;2022-10-26T19:51:32;13.30;99.90
9662;DHT22;24982;52.344;12.990;2022-10-26T19:54:34;13.30;99.90
9662;DHT22;24982;52.344;12.990;2022-10-26T19:57:37;13.30;99.90
9662;DHT22;24982;52.344;12.990;2022-10-26T20:00:40;13.20;99.90
9662;DHT22;24982;52.344;12.990;2022-10-26T20:03:42;13.20;99.90
9662;DHT22;24982;52.344;12.990;2022-10-26T20:06:44;13.20;99.90
9662;DHT22;24982;52.344;12.990;2022-10-26T20:09:46;13.20;99.90
9662;DHT22;24982;52.344;12.990;2022-10-26T20:12:50;13.20;99.90
9662;DHT22;24982;52.344;12.990;2022-10-26T20:15:52;13.30;99.90
9662;DHT22;24982;52.344;12.990;2022-10-26T20:18:54;13.30;99.90
9662;DHT22;24982;52.344;12.990;2022-10-26T20:21:56;13.30;99.90
9662;DHT22;24982;52.344;12.990;2022-10-26T20:24:58;13.30;99.90
9662;DHT22;24982;52.344;12.990;2022-10-26T20:28:02;13.30;99.90
9662;DHT22;24982;52.344;12.990;2022-10-26T20:31:04;13.30;99.90
9662;DHT22;24982;52.344;12.990;2022-10-26T20:34:07;13.40;99.90
9662;DHT22;24982;52.344;12.990;2022-10-26T20:37:09;13.40;99.90
9662;DHT22;24982;52.344;12.990;2022-10-26T20:40:14;13.40;99.90
9662;DHT22;24982;52.344;12.990;2022-10-26T20:43:18;13.40;99.90
9662;DHT22;24982;52.344;12.990;2022-10-26T20:46:21;13.40;99.90
9662;DHT22;24982;52.344;12.990;2022-10-26T20:49:24;13.30;99.90
9662;DHT22;24982;52.344;12.990;2022-10-26T20:52:34;13.20;99.90
9662;DHT22;24982;52.344;12.990;2022-10-26T20:55:41;13.10;99.90
9662;DHT22;24982;52.344;12.990;2022-10-26T20:58:49;13.10;99.90
9662;DHT22;24982;52.344;12.990;2022-10-26T21:01:52;13.00;99.90
9662;DHT22;24982;52.344;12.990;2022-10-26T21:04:54;12.90;99.90
9662;DHT22;24982;52.344;12.990;2022-10-26T21:07:56;12.90;99.90
9662;DHT22;24982;52.344;12.990;2022-10-26T21:10:58;12.90;99.90
9662;DHT22;24982;52.344;12.990;2022-10-26T21:14:02;12.90;99.90
9662;DHT22;24982;52.344;12.990;2022-10-26T21:17:05;12.80;99.90
9662;DHT22;24982;52.344;12.990;2022-10-26T21:20:07;12.80;99.90
9662;DHT22;24982;52.344;12.990;2022-10-26T21:23:09;12.90;99.90
9662;DHT22;24982;52.344;12.990;2022-10-26T21:26:11;12.70;99.90
9662;DHT22;24982;52.344;12.990;2022-10-26T21:29:15;12.60;99.90
9662;DHT22;24982;52.344;12.990;2022-10-26T21:32:17;12.70;99.90
9662;DHT22;24982;52.344;12.990;2022-10-26T21:35:19;12.60;99.90